Terminal Aerodrome Forecast
Issued by NWS

Home | Current Version | Previous Version | Text Only | Print | Product List | Glossary Off
Versions: 1 2 3 4 5 6 7 8 9 10 11 12 13 14 15 16 17 18 19 20 21 22 23 24 25

000
FTUS43 KGRB 271100
TAFAUW
TAF
KAUW 271139Z 2712/2812 08005KT 2SM -SN BR OVC006
      TEMPO 2712/2716 1SM -SN BR OVC003
     FM271600 33007KT 3SM -SN BR BKN006 OVC012
     FM271900 31010G15KT 5SM -SN BKN025
     FM272100 29008KT P6SM SCT025 BKN070
     FM280000 28007KT P6SM SCT080=

USA.gov is the U.S. government's official web portal to all federal, state and local government web resources and services.